Apucarana, Brazil
Current Conditions -  °F | °C
As of 2:00 PM on Sunday 21 Dec 2014 (Local Time) from SBLO Reporting Station
Light Rain Light Rain  
Wind Chill: 82°   Ceiling: 3000
Heat Index: 89°   Visibility: 6mi
Dew Point: 75°   Wind: 9mph
Humidity: 79%   Direction: 330°NNW
Pressure: 29.83"   Gusts: NA
Location:  23.55°S, 51.47°W
Report Text: SBLO 211600Z 33008KT 9999 -RA SCT020 BKN030 28/24 Q1010 RERA
Loading
Personal Weather Stations






























Interactive Weather Map New forecast layout! Learn more

10-Day Weather Forecast

Advertisements
Track Severe Weather on mobile